sensor_id;sensor_type;location;lat;lon;timestamp;P1;durP1;ratioP1;P2;durP2;ratioP2
46863;SDS011;32598;50.204;6.408;2023-10-13T19:49:45;15.00;;;6.22;;
46863;SDS011;32598;50.204;6.408;2023-10-13T19:52:11;18.38;;;7.00;;
46863;SDS011;32598;50.204;6.408;2023-10-13T19:54:36;15.20;;;6.35;;
46863;SDS011;32598;50.204;6.408;2023-10-13T19:57:04;16.88;;;6.35;;
46863;SDS011;32598;50.204;6.408;2023-10-13T19:59:30;16.52;;;7.18;;
46863;SDS011;32598;50.204;6.408;2023-10-13T20:01:55;19.70;;;7.10;;
46863;SDS011;32598;50.204;6.408;2023-10-13T20:04:20;28.07;;;7.37;;
46863;SDS011;32598;50.204;6.408;2023-10-13T20:06:46;16.52;;;7.18;;
46863;SDS011;32598;50.204;6.408;2023-10-13T20:09:11;18.83;;;7.13;;
46863;SDS011;32598;50.204;6.408;2023-10-13T20:11:56;21.42;;;7.03;;
46863;SDS011;32598;50.204;6.408;2023-10-13T20:14:22;15.73;;;6.63;;
46863;SDS011;32598;50.204;6.408;2023-10-13T20:16:50;19.43;;;7.70;;
46863;SDS011;32598;50.204;6.408;2023-10-13T20:19:16;17.23;;;7.22;;
46863;SDS011;32598;50.204;6.408;2023-10-13T20:21:41;19.30;;;7.40;;
46863;SDS011;32598;50.204;6.408;2023-10-13T20:24:07;24.52;;;8.27;;
46863;SDS011;32598;50.204;6.408;2023-10-13T20:26:32;24.10;;;8.73;;
46863;SDS011;32598;50.204;6.408;2023-10-13T20:29:03;15.55;;;8.20;;
46863;SDS011;32598;50.204;6.408;2023-10-13T20:31:29;21.63;;;8.43;;
46863;SDS011;32598;50.204;6.408;2023-10-13T20:34:00;24.55;;;9.02;;
46863;SDS011;32598;50.204;6.408;2023-10-13T20:36:26;21.97;;;8.67;;
46863;SDS011;32598;50.204;6.408;2023-10-13T20:38:51;17.57;;;8.30;;
46863;SDS011;32598;50.204;6.408;2023-10-13T20:41:16;14.70;;;8.10;;
46863;SDS011;32598;50.204;6.408;2023-10-13T20:43:43;16.45;;;8.40;;
46863;SDS011;32598;50.204;6.408;2023-10-13T20:46:12;19.05;;;8.38;;
46863;SDS011;32598;50.204;6.408;2023-10-13T20:48:37;17.37;;;8.30;;
46863;SDS011;32598;50.204;6.408;2023-10-13T20:51:03;22.67;;;9.73;;
46863;SDS011;32598;50.204;6.408;2023-10-13T20:53:30;20.15;;;8.90;;
46863;SDS011;32598;50.204;6.408;2023-10-13T20:56:02;21.35;;;9.75;;
46863;SDS011;32598;50.204;6.408;2023-10-13T20:58:27;20.88;;;9.52;;
46863;SDS011;32598;50.204;6.408;2023-10-13T21:00:53;19.23;;;9.93;;
46863;SDS011;32598;50.204;6.408;2023-10-13T21:03:19;25.17;;;10.40;;
46863;SDS011;32598;50.204;6.408;2023-10-13T21:05:45;22.85;;;9.75;;
46863;SDS011;32598;50.204;6.408;2023-10-13T21:08:10;21.63;;;10.18;;
46863;SDS011;32598;50.204;6.408;2023-10-13T21:10:35;24.95;;;10.32;;
46863;SDS011;32598;50.204;6.408;2023-10-13T21:13:01;21.43;;;10.67;;
46863;SDS011;32598;50.204;6.408;2023-10-13T21:15:27;22.33;;;10.75;;
46863;SDS011;32598;50.204;6.408;2023-10-13T21:17:52;20.45;;;10.07;;
46863;SDS011;32598;50.204;6.408;2023-10-13T21:20:18;24.23;;;10.90;;
46863;SDS011;32598;50.204;6.408;2023-10-13T21:22:45;20.02;;;10.82;;
46863;SDS011;32598;50.204;6.408;2023-10-13T21:25:11;27.48;;;11.18;;
46863;SDS011;32598;50.204;6.408;2023-10-13T21:30:09;25.60;;;12.05;;
46863;SDS011;32598;50.204;6.408;2023-10-13T21:32:35;22.58;;;11.07;;
46863;SDS011;32598;50.204;6.408;2023-10-13T21:35:01;20.87;;;11.33;;
46863;SDS011;32598;50.204;6.408;2023-10-13T21:37:26;26.40;;;11.77;;
46863;SDS011;32598;50.204;6.408;2023-10-13T21:39:51;23.67;;;11.40;;
46863;SDS011;32598;50.204;6.408;2023-10-13T21:42:16;21.40;;;11.02;;
46863;SDS011;32598;50.204;6.408;2023-10-13T21:44:42;32.92;;;12.48;;
46863;SDS011;32598;50.204;6.408;2023-10-13T21:47:08;28.95;;;11.85;;
46863;SDS011;32598;50.204;6.408;2023-10-13T21:49:33;24.67;;;12.30;;
46863;SDS011;32598;50.204;6.408;2023-10-13T21:51:59;22.75;;;13.00;;
46863;SDS011;32598;50.204;6.408;2023-10-13T21:54:24;21.63;;;12.23;;
46863;SDS011;32598;50.204;6.408;2023-10-13T21:56:49;31.90;;;13.37;;
46863;SDS011;32598;50.204;6.408;2023-10-13T21:59:14;30.77;;;13.70;;
46863;SDS011;32598;50.204;6.408;2023-10-13T22:01:42;28.60;;;12.83;;
46863;SDS011;32598;50.204;6.408;2023-10-13T22:04:09;27.70;;;13.75;;
46863;SDS011;32598;50.204;6.408;2023-10-13T22:06:35;27.30;;;14.03;;
46863;SDS011;32598;50.204;6.408;2023-10-13T22:09:01;26.02;;;14.55;;
46863;SDS011;32598;50.204;6.408;2023-10-13T22:11:30;24.67;;;13.35;;
46863;SDS011;32598;50.204;6.408;2023-10-13T22:13:55;23.20;;;13.15;;
46863;SDS011;32598;50.204;6.408;2023-10-13T22:16:20;27.08;;;13.75;;
46863;SDS011;32598;50.204;6.408;2023-10-13T22:18:46;21.73;;;12.70;;
46863;SDS011;32598;50.204;6.408;2023-10-13T22:21:13;24.52;;;13.13;;
46863;SDS011;32598;50.204;6.408;2023-10-13T22:23:39;29.27;;;13.25;;
46863;SDS011;32598;50.204;6.408;2023-10-13T22:28:39;24.05;;;12.02;;
46863;SDS011;32598;50.204;6.408;2023-10-13T22:31:08;23.55;;;11.98;;
46863;SDS011;32598;50.204;6.408;2023-10-13T22:33:36;25.67;;;12.80;;
46863;SDS011;32598;50.204;6.408;2023-10-13T22:36:01;32.33;;;12.95;;
46863;SDS011;32598;50.204;6.408;2023-10-13T22:38:28;28.77;;;12.80;;
46863;SDS011;32598;50.204;6.408;2023-10-13T22:40:54;30.38;;;12.57;;
46863;SDS011;32598;50.204;6.408;2023-10-13T22:43:19;25.87;;;12.43;;
46863;SDS011;32598;50.204;6.408;2023-10-13T22:45:45;29.53;;;11.87;;
46863;SDS011;32598;50.204;6.408;2023-10-13T22:48:10;27.42;;;12.20;;
46863;SDS011;32598;50.204;6.408;2023-10-13T22:50:35;26.20;;;11.23;;
46863;SDS011;32598;50.204;6.408;2023-10-13T22:53:00;26.73;;;12.53;;
46863;SDS011;32598;50.204;6.408;2023-10-13T22:55:25;25.63;;;11.15;;
46863;SDS011;32598;50.204;6.408;2023-10-13T22:57:51;30.70;;;10.73;;
46863;SDS011;32598;50.204;6.408;2023-10-13T23:00:17;27.42;;;11.57;;
46863;SDS011;32598;50.204;6.408;2023-10-13T23:02:46;25.67;;;10.73;;
46863;SDS011;32598;50.204;6.408;2023-10-13T23:05:13;32.75;;;11.80;;
46863;SDS011;32598;50.204;6.408;2023-10-13T23:07:52;29.77;;;11.35;;
46863;SDS011;32598;50.204;6.408;2023-10-13T23:10:25;23.27;;;10.23;;
46863;SDS011;32598;50.204;6.408;2023-10-13T23:13:20;22.63;;;10.88;;
46863;SDS011;32598;50.204;6.408;2023-10-13T23:15:48;25.63;;;10.05;;
46863;SDS011;32598;50.204;6.408;2023-10-13T23:18:17;23.17;;;9.63;;
46863;SDS011;32598;50.204;6.408;2023-10-13T23:20:43;26.48;;;9.30;;
46863;SDS011;32598;50.204;6.408;2023-10-13T23:23:09;22.98;;;8.98;;
46863;SDS011;32598;50.204;6.408;2023-10-13T23:25:38;20.83;;;8.98;;
46863;SDS011;32598;50.204;6.408;2023-10-13T23:28:04;23.23;;;9.13;;
46863;SDS011;32598;50.204;6.408;2023-10-13T23:30:30;22.25;;;8.55;;
46863;SDS011;32598;50.204;6.408;2023-10-13T23:32:56;25.45;;;9.48;;
46863;SDS011;32598;50.204;6.408;2023-10-13T23:35:21;23.23;;;8.70;;
46863;SDS011;32598;50.204;6.408;2023-10-13T23:37:46;24.10;;;8.60;;
46863;SDS011;32598;50.204;6.408;2023-10-13T23:40:12;19.80;;;8.20;;
46863;SDS011;32598;50.204;6.408;2023-10-13T23:42:39;24.95;;;9.10;;
46863;SDS011;32598;50.204;6.408;2023-10-13T23:45:19;20.27;;;8.23;;
46863;SDS011;32598;50.204;6.408;2023-10-13T23:47:48;21.30;;;7.97;;
46863;SDS011;32598;50.204;6.408;2023-10-13T23:50:13;19.77;;;8.67;;
46863;SDS011;32598;50.204;6.408;2023-10-13T23:52:45;17.05;;;7.38;;
46863;SDS011;32598;50.204;6.408;2023-10-13T23:55:10;18.65;;;7.30;;
46863;SDS011;32598;50.204;6.408;2023-10-13T23:57:42;19.55;;;7.45;;
